Página principal
METAR-TAF:

METAR-TAF

Aeroportos :

Cambridge, Inglaterra

latitude: 52-12N, longitude: 000-11E, altura: 15 m

Observação actual do tempo

O boletim foi feito há 10 horas e 21 minutos, às 16:50 UTC
Vento 8 kt de sudoeste, variando entre sul e oes-sudoeste
Temperatura 15°C
Humidade 59%
Pressão 1018 hPa
Visibilidade 10 km ou mais
Nuvens dispersasa uma altura de 4300 ft

METAR: EGSC 281650Z 23008KT 190V250 9999 SCT043 15/07 Q1018

Hora: 04:11 (03:11 UTC)

Previsão

O boletim foi feito há 13 horas e 12 minutos, às 13:59 UTC
Previsão válida de 28 às 15 UTC a 28 às 24 UTC
Vento 10 kt de oes-sudoeste
Visibilidade: 8000 m
Poucas nuvensa uma altura de 4500 ft
Tornando-se
de 28 às 15 UTC a 28 às 18 UTC
Visibilidade 10 km ou mais

TAF: EGSC 281359Z 2815/2824 24010KT 8000 FEW045 BECMG 2815/2818 9999

Observações e previsões do tempo de mais de 4000 aeroportos (mensagens METAR e TAF).

As estações disponíveis são os pontos amarelos e vermelhos sobre o mapa.

Mova o rato sobre o mapa para ver o nome da estação.

Depois clique no ponto para visualizar as observações e previsões meteorológicas.

Para alterar o mapa : clique nos botões verdes com uma cruz preta para aumentar o zoom; no botão verde com uma pitada de zoom; ou nas setas verdes para mapas adjacentes.


METAR-TAF: